createdAt,value
2018-12-27T00:01:13.808Z,101897.04
2018-12-27T00:03:44.569Z,101894.44
2018-12-27T00:06:15.371Z,101885.34
2018-12-27T00:08:46.191Z,101888.00
2018-12-27T00:11:16.980Z,101884.97
2018-12-27T00:13:47.762Z,101888.19
2018-12-27T00:16:18.588Z,101891.09
2018-12-27T00:18:49.363Z,101890.05
2018-12-27T00:21:20.120Z,101884.21
2018-12-27T00:23:50.907Z,101883.14
2018-12-27T00:26:21.685Z,101886.53
2018-12-27T00:28:52.434Z,101886.08
2018-12-27T00:31:23.392Z,101882.56
2018-12-27T00:33:54.348Z,101884.52
2018-12-27T00:36:25.376Z,101883.17
2018-12-27T00:38:56.336Z,101881.79
2018-12-27T00:41:27.332Z,101876.84
2018-12-27T00:43:58.344Z,101877.23
2018-12-27T00:46:29.420Z,101880.73
2018-12-27T00:49:00.436Z,101888.62
2018-12-27T00:51:31.405Z,101878.03
2018-12-27T00:54:02.386Z,101882.47
2018-12-27T00:56:33.504Z,101879.84
2018-12-27T00:59:04.468Z,101874.45
2018-12-27T01:01:35.456Z,101868.25
2018-12-27T01:04:06.396Z,101866.41
2018-12-27T01:06:37.384Z,101858.03
2018-12-27T01:09:08.482Z,101860.20
2018-12-27T01:11:39.505Z,101862.86
2018-12-27T01:14:10.472Z,101861.02
2018-12-27T01:16:41.510Z,101869.01
2018-12-27T01:19:12.501Z,101873.41
2018-12-27T01:21:43.564Z,101868.19
2018-12-27T01:24:14.542Z,101871.30
2018-12-27T01:26:46.418Z,101874.03
2018-12-27T01:29:17.431Z,101876.69
2018-12-27T01:31:50.755Z,101880.20
2018-12-27T01:34:21.219Z,101878.00
2018-12-27T01:36:52.671Z,101880.30
2018-12-27T01:39:23.763Z,101881.30
2018-12-27T01:41:54.767Z,101883.84
2018-12-27T01:44:25.863Z,101878.98
2018-12-27T01:46:56.967Z,101874.03
2018-12-27T01:49:28.093Z,101869.29
2018-12-27T01:51:59.079Z,101871.80
2018-12-27T01:54:30.046Z,101864.80
2018-12-27T01:57:01.145Z,101869.69
2018-12-27T01:59:32.130Z,101870.05
2018-12-27T02:02:03.100Z,101868.67
2018-12-27T02:04:34.183Z,101862.98
2018-12-27T02:07:05.198Z,101861.64
2018-12-27T02:09:36.215Z,101867.00
2018-12-27T02:12:07.329Z,101853.42
2018-12-27T02:14:38.291Z,101851.98
2018-12-27T02:17:09.411Z,101849.35
2018-12-27T02:19:40.504Z,101848.10
2018-12-27T02:22:11.551Z,101845.02
2018-12-27T02:24:42.597Z,101842.56
2018-12-27T02:27:13.586Z,101839.91
2018-12-27T02:29:44.709Z,101840.30
2018-12-27T02:32:15.732Z,101830.67
2018-12-27T02:34:46.855Z,101838.05
2018-12-27T02:37:17.801Z,101842.81
2018-12-27T02:39:48.880Z,101842.11
2018-12-27T02:42:19.865Z,101837.02
2018-12-27T02:44:50.915Z,101828.59
2018-12-27T02:47:21.896Z,101833.39
2018-12-27T02:49:52.935Z,101830.21
2018-12-27T02:52:23.942Z,101839.08
2018-12-27T02:54:55.087Z,101834.84
2018-12-27T02:57:29.610Z,101829.16
2018-12-27T03:00:00.723Z,101829.95
2018-12-27T03:02:31.804Z,101824.19
2018-12-27T03:05:02.860Z,101822.87
2018-12-27T03:07:33.971Z,101824.64
2018-12-27T03:10:05.198Z,101822.05
2018-12-27T03:12:36.311Z,101820.78
2018-12-27T03:15:08.441Z,101813.66
2018-12-27T03:17:39.470Z,101810.58
2018-12-27T03:20:10.548Z,101807.00
2018-12-27T03:22:41.686Z,101806.72
2018-12-27T03:25:12.682Z,101804.52
2018-12-27T03:27:43.772Z,101801.41
2018-12-27T03:30:14.834Z,101801.80
2018-12-27T03:32:45.863Z,101805.78
2018-12-27T03:35:16.906Z,101809.73
2018-12-27T03:37:48.423Z,101806.20
2018-12-27T03:40:19.419Z,101810.55
2018-12-27T03:42:50.514Z,101808.89
2018-12-27T03:45:21.564Z,101809.78
2018-12-27T03:47:52.648Z,101808.41
2018-12-27T03:50:23.703Z,101805.77
2018-12-27T03:52:56.210Z,101808.41
2018-12-27T03:55:27.601Z,101806.20
2018-12-27T03:57:58.997Z,101807.58
2018-12-27T04:00:30.061Z,101807.92
2018-12-27T04:03:01.133Z,101811.84
2018-12-27T04:05:32.171Z,101806.95
2018-12-27T04:08:03.219Z,101800.46
2018-12-27T04:10:34.207Z,101802.88
2018-12-27T04:13:05.214Z,101795.42
2018-12-27T04:15:36.201Z,101800.20
2018-12-27T04:18:07.116Z,101802.43
2018-12-27T04:20:37.943Z,101802.09
2018-12-27T04:23:08.949Z,101800.69
2018-12-27T04:25:39.823Z,101794.91
2018-12-27T04:28:10.774Z,101798.85
2018-12-27T04:30:42.113Z,101795.91
2018-12-27T04:33:19.551Z,101794.23
2018-12-27T04:35:54.074Z,101788.88
2018-12-27T04:38:24.912Z,101788.42
2018-12-27T04:40:55.772Z,101789.31
2018-12-27T04:43:27.649Z,101785.06
2018-12-27T04:45:58.471Z,101792.06
2018-12-27T04:48:29.425Z,101794.23
2018-12-27T04:51:00.323Z,101801.26
2018-12-27T04:53:32.241Z,101790.31
2018-12-27T04:56:03.087Z,101801.72
2018-12-27T04:58:34.033Z,101804.41
2018-12-27T05:01:04.891Z,101795.58
2018-12-27T05:03:35.945Z,101793.03
2018-12-27T05:06:11.559Z,101792.48
2018-12-27T05:08:43.018Z,101798.03
2018-12-27T05:11:16.737Z,101787.42
2018-12-27T05:13:47.649Z,101786.97
2018-12-27T05:16:18.652Z,101788.73
2018-12-27T05:18:49.511Z,101788.42
2018-12-27T05:21:20.334Z,101786.63
2018-12-27T05:23:51.189Z,101781.34
2018-12-27T05:26:21.985Z,101778.63
2018-12-27T05:28:52.781Z,101768.99
2018-12-27T05:31:23.622Z,101774.16
2018-12-27T05:33:54.490Z,101769.30
2018-12-27T05:36:25.518Z,101770.64
2018-12-27T05:38:56.370Z,101770.28
2018-12-27T05:41:27.207Z,101769.33
2018-12-27T05:43:58.046Z,101777.67
2018-12-27T05:46:28.858Z,101773.83
2018-12-27T05:49:00.719Z,101772.94
2018-12-27T05:51:31.562Z,101776.57
2018-12-27T05:54:02.465Z,101774.88
2018-12-27T05:56:33.246Z,101767.42
2018-12-27T05:59:04.219Z,101765.73
2018-12-27T06:01:35.102Z,101763.45
2018-12-27T06:04:05.915Z,101763.05
2018-12-27T06:06:36.747Z,101760.52
2018-12-27T06:09:08.988Z,101764.48
2018-12-27T06:11:39.874Z,101767.64
2018-12-27T06:14:10.767Z,101761.02
2018-12-27T06:16:44.602Z,101761.16
2018-12-27T06:19:15.474Z,101755.19
2018-12-27T06:21:52.114Z,101759.94
2018-12-27T06:24:23.030Z,101755.99
2018-12-27T06:26:53.862Z,101755.48
2018-12-27T06:29:25.698Z,101752.83
2018-12-27T06:31:56.522Z,101755.02
2018-12-27T06:34:27.443Z,101756.34
2018-12-27T06:36:58.323Z,101751.91
2018-12-27T06:39:29.172Z,101754.14
2018-12-27T06:42:00.097Z,101753.79
2018-12-27T06:44:31.002Z,101749.84
2018-12-27T06:47:01.822Z,101759.11
2018-12-27T06:49:32.665Z,101753.53
2018-12-27T06:52:03.490Z,101760.13
2018-12-27T06:54:34.316Z,101749.27
2018-12-27T06:57:05.097Z,101749.98
2018-12-27T06:59:35.873Z,101738.72
2018-12-27T07:02:06.833Z,101742.64
2018-12-27T07:04:37.670Z,101748.37
2018-12-27T07:07:08.418Z,101742.21
2018-12-27T07:09:39.191Z,101745.67
2018-12-27T07:12:09.982Z,101741.30
2018-12-27T07:14:40.726Z,101748.30
2018-12-27T07:17:11.564Z,101750.15
2018-12-27T07:19:42.401Z,101755.06
2018-12-27T07:22:13.252Z,101752.45
2018-12-27T07:24:44.038Z,101753.38
2018-12-27T07:27:15.026Z,101761.36
2018-12-27T07:29:45.994Z,101758.66
2018-12-27T07:32:24.238Z,101757.09
2018-12-27T07:35:14.781Z,101755.14
2018-12-27T07:37:45.844Z,101760.86
2018-12-27T07:40:16.958Z,101759.44
2018-12-27T07:42:47.867Z,101758.55
2018-12-27T07:45:18.949Z,101760.30
2018-12-27T07:47:49.953Z,101768.75
2018-12-27T07:50:21.287Z,101761.80
2018-12-27T07:52:52.560Z,101762.15
2018-12-27T07:55:23.653Z,101761.69
2018-12-27T07:57:56.792Z,101767.41
2018-12-27T08:00:30.071Z,101765.66
2018-12-27T08:04:12.113Z,101770.87
2018-12-27T08:07:36.478Z,101770.11
2018-12-27T08:10:14.568Z,101766.70
2018-12-27T08:17:21.352Z,101767.88
2018-12-27T08:20:39.125Z,101536.59
2018-12-27T08:23:11.401Z,101766.17
2018-12-27T08:28:56.870Z,101769.08
2018-12-27T08:32:47.853Z,101769.50
2018-12-27T08:35:30.559Z,101771.83
2018-12-27T08:38:04.213Z,101772.48
2018-12-27T08:40:51.437Z,101767.45
2018-12-27T08:43:30.105Z,101768.97
2018-12-27T08:46:09.665Z,101776.61
2018-12-27T08:48:55.477Z,101779.11
2018-12-27T08:51:27.501Z,101773.98
2018-12-27T08:53:58.770Z,101777.97
2018-12-27T08:56:30.738Z,101779.97
2018-12-27T08:59:02.138Z,101767.69
2018-12-27T09:01:34.144Z,101771.50
2018-12-27T09:04:05.033Z,101776.68
2018-12-27T09:06:35.997Z,101769.30
2018-12-27T09:09:09.479Z,101771.33
2018-12-27T09:11:40.301Z,101778.28
2018-12-27T09:14:15.157Z,101774.34
2018-12-27T09:16:47.214Z,101777.78
2018-12-27T09:19:24.656Z,101780.19
2018-12-27T09:21:58.328Z,101773.06
2018-12-27T09:24:35.103Z,101762.95
2018-12-27T09:27:18.797Z,101755.14
2018-12-27T09:29:49.572Z,101756.06
2018-12-27T09:32:20.418Z,101747.05
2018-12-27T09:34:51.288Z,101749.80
2018-12-27T09:37:22.099Z,101743.64
2018-12-27T09:39:52.897Z,101749.02
2018-12-27T09:42:23.748Z,101743.48
2018-12-27T09:44:54.576Z,101746.37
2018-12-27T09:47:25.432Z,101743.23
2018-12-27T09:49:56.232Z,101742.23
2018-12-27T09:52:27.024Z,101747.64
2018-12-27T09:54:57.818Z,101741.54
2018-12-27T09:57:28.647Z,101743.83
2018-12-27T09:59:59.438Z,101743.97
2018-12-27T10:02:30.310Z,101735.59
2018-12-27T10:05:01.113Z,101743.21
2018-12-27T10:07:33.152Z,101737.07
2018-12-27T10:10:04.192Z,101737.42
2018-12-27T10:12:35.058Z,101735.58
2018-12-27T10:15:06.931Z,101736.84
2018-12-27T10:17:37.724Z,101731.15
2018-12-27T10:20:09.056Z,101729.07
2018-12-27T10:22:39.877Z,101714.76
2018-12-27T10:25:10.708Z,101720.14
2018-12-27T10:27:41.564Z,101719.29
2018-12-27T10:30:12.328Z,101715.77
2018-12-27T10:32:43.186Z,101710.50
2018-12-27T10:35:14.099Z,101707.68
2018-12-27T10:37:44.905Z,101706.41
2018-12-27T10:40:15.776Z,101700.77
2018-12-27T10:42:46.552Z,101692.43
2018-12-27T10:45:17.407Z,101690.73
2018-12-27T10:47:48.222Z,101682.94
2018-12-27T10:50:19.038Z,101677.41
2018-12-27T10:52:49.965Z,101678.80
2018-12-27T10:55:20.746Z,101668.80
2018-12-27T10:57:51.540Z,101667.48
2018-12-27T11:00:22.383Z,101657.36
2018-12-27T11:02:53.220Z,101661.84
2018-12-27T11:05:24.009Z,101659.64
2018-12-27T11:07:59.352Z,101654.37
2018-12-27T11:10:30.144Z,101648.78
2018-12-27T11:13:00.966Z,101645.23
2018-12-27T11:15:31.824Z,101633.84
2018-12-27T11:18:02.663Z,101629.86
2018-12-27T11:20:33.465Z,101631.68
2018-12-27T11:23:04.320Z,101624.17
2018-12-27T11:25:35.078Z,101633.35
2018-12-27T11:28:05.945Z,101629.91
2018-12-27T11:30:36.784Z,101627.77
2018-12-27T11:33:07.648Z,101618.53
2018-12-27T11:35:38.491Z,101619.87
2018-12-27T11:38:09.438Z,101622.94
2018-12-27T11:40:40.295Z,101625.55
2018-12-27T11:43:11.090Z,101622.48
2018-12-27T11:45:41.884Z,101611.45
2018-12-27T11:48:12.683Z,101613.67
2018-12-27T11:50:43.575Z,101617.88
2018-12-27T11:53:14.370Z,101613.16
2018-12-27T11:55:45.378Z,101612.27
2018-12-27T11:58:16.193Z,101610.86
2018-12-27T12:00:47.147Z,101615.62
2018-12-27T12:03:17.915Z,101614.75
2018-12-27T12:05:48.815Z,101611.69
2018-12-27T12:08:19.673Z,101609.03
2018-12-27T12:10:50.561Z,101608.14
2018-12-27T12:13:21.461Z,101612.07
2018-12-27T12:15:52.268Z,101607.25
2018-12-27T12:18:23.090Z,101609.46
2018-12-27T12:20:53.935Z,101611.72
2018-12-27T12:23:24.750Z,101616.20
2018-12-27T12:25:55.558Z,101616.13
2018-12-27T12:28:28.589Z,101613.05
2018-12-27T12:30:59.251Z,101617.52
2018-12-27T12:33:30.071Z,101615.20
2018-12-27T12:36:39.771Z,101616.94
2018-12-27T12:39:16.535Z,101619.13
2018-12-27T12:42:15.601Z,101612.98
2018-12-27T12:52:52.255Z,101610.36
2018-12-27T12:57:11.587Z,101609.29
2018-12-27T12:59:51.720Z,101612.30
2018-12-27T13:02:59.405Z,101614.61
2018-12-27T13:06:00.607Z,101618.08
2018-12-27T13:08:37.103Z,101626.45
2018-12-27T15:05:02.842Z,101612.80
2018-12-27T15:07:37.057Z,101621.43
2018-12-27T15:10:10.323Z,101617.94
2018-12-27T15:12:41.740Z,101615.23
2018-12-27T15:15:12.658Z,101612.16
2018-12-27T15:17:43.941Z,101611.73
2018-12-27T15:20:15.168Z,101612.62
2018-12-27T15:22:46.785Z,101607.44
2018-12-27T15:25:18.098Z,101607.79
2018-12-27T15:27:51.873Z,101604.31
2018-12-27T15:30:23.129Z,101599.54
2018-12-27T15:32:54.045Z,101594.76
2018-12-27T15:35:25.318Z,101597.78
2018-12-27T15:37:57.342Z,101598.22
2018-12-27T15:40:28.687Z,101600.92
2018-12-27T15:43:02.299Z,101598.34
2018-12-27T15:45:35.086Z,101601.78
2018-12-27T15:48:07.324Z,101602.45
2018-12-27T15:50:38.229Z,101598.00
2018-12-27T15:53:09.068Z,101600.10
2018-12-27T15:55:39.909Z,101596.53
2018-12-27T15:58:12.383Z,101592.11
2018-12-27T16:00:43.484Z,101594.50
2018-12-27T16:03:14.840Z,101593.14
2018-12-27T16:05:45.998Z,101588.12
2018-12-27T16:08:16.829Z,101597.02
2018-12-27T16:10:50.601Z,101591.67
2018-12-27T16:13:24.822Z,101597.00
2018-12-27T16:15:55.648Z,101587.48
2018-12-27T16:18:26.531Z,101595.80
2018-12-27T16:20:57.982Z,101599.26
2018-12-27T16:23:31.724Z,101591.90
2018-12-27T16:26:07.769Z,101595.81
2018-12-27T16:28:38.946Z,101599.79
2018-12-27T16:31:09.812Z,101601.27
2018-12-27T16:33:40.580Z,101606.86
2018-12-27T16:36:11.384Z,101601.15
2018-12-27T16:38:42.502Z,101605.51
2018-12-27T16:41:13.318Z,101604.64
2018-12-27T16:43:44.222Z,101599.67
2018-12-27T16:46:15.058Z,101600.98
2018-12-27T16:48:45.906Z,101589.23
2018-12-27T16:51:16.722Z,101591.86
2018-12-27T16:53:47.538Z,101591.94
2018-12-27T16:56:18.414Z,101585.70
2018-12-27T16:58:49.236Z,101589.63
2018-12-27T17:01:20.102Z,101583.97
2018-12-27T17:03:50.862Z,101584.44
2018-12-27T17:06:21.746Z,101584.84
2018-12-27T17:08:52.580Z,101583.08
2018-12-27T17:11:23.501Z,101588.77
2018-12-27T17:13:54.356Z,101591.75
2018-12-27T17:16:25.134Z,101583.52
2018-12-27T17:18:55.991Z,101586.94
2018-12-27T17:21:26.802Z,101591.33
2018-12-27T17:23:57.766Z,101583.97
2018-12-27T17:26:28.582Z,101579.25
2018-12-27T17:28:59.650Z,101580.89
2018-12-27T17:31:30.639Z,101581.69
2018-12-27T17:34:03.230Z,101583.09
2018-12-27T17:36:34.094Z,101582.64
2018-12-27T17:39:07.420Z,101587.05
2018-12-27T17:41:38.382Z,101583.09
2018-12-27T17:44:12.092Z,101590.94
2018-12-27T17:46:43.094Z,101589.13
2018-12-27T17:49:14.095Z,101584.84
2018-12-27T17:51:44.925Z,101589.70
2018-12-27T17:54:16.030Z,101584.36
2018-12-27T17:56:46.955Z,101584.39
2018-12-27T17:59:17.851Z,101574.48
2018-12-27T18:01:48.820Z,101580.02
2018-12-27T18:04:27.513Z,101576.04
2018-12-27T18:06:58.375Z,101563.36
2018-12-27T18:09:31.313Z,101565.98
2018-12-27T18:12:02.377Z,101564.59
2018-12-27T18:14:33.605Z,101568.95
2018-12-27T18:17:04.736Z,101569.34
2018-12-27T18:19:36.815Z,101573.80
2018-12-27T18:22:08.239Z,101573.00
2018-12-27T18:24:43.729Z,101568.16
2018-12-27T18:27:15.742Z,101569.01
2018-12-27T18:29:50.061Z,101569.84
2018-12-27T18:32:21.031Z,101573.36
2018-12-27T18:34:55.819Z,101562.91
2018-12-27T18:37:26.830Z,101564.74
2018-12-27T18:39:57.919Z,101566.42
2018-12-27T18:42:34.277Z,101569.01
2018-12-27T18:45:05.309Z,101566.38
2018-12-27T18:47:38.173Z,101562.43
2018-12-27T18:50:09.265Z,101559.83
2018-12-27T18:52:40.150Z,101558.50
2018-12-27T18:55:19.769Z,101557.07
2018-12-27T18:57:45.431Z,101554.46
2018-12-27T19:00:17.224Z,101550.97
2018-12-27T19:02:48.033Z,101550.56
2018-12-27T19:05:19.332Z,101546.64
2018-12-27T19:07:50.267Z,101550.16
2018-12-27T19:10:21.462Z,101549.67
2018-12-27T19:13:13.527Z,101552.36
2018-12-27T19:16:03.647Z,101549.75
2018-12-27T19:18:47.995Z,101549.69
2018-12-27T19:21:57.431Z,101548.36
2018-12-27T19:24:31.326Z,101565.46
2018-12-27T19:27:02.463Z,101553.18
2018-12-27T19:29:33.718Z,101554.98
2018-12-27T19:32:04.614Z,101552.95
2018-12-27T19:34:35.946Z,101555.56
2018-12-27T19:37:07.256Z,101562.14
2018-12-27T19:39:40.196Z,101552.81
2018-12-27T19:42:12.556Z,101562.00
2018-12-27T19:44:43.912Z,101556.34
2018-12-27T19:47:14.995Z,101567.67
2018-12-27T19:49:45.928Z,101561.25
2018-12-27T19:52:17.077Z,101571.75
2018-12-27T19:54:48.617Z,101571.78
2018-12-27T19:57:19.676Z,101566.94
2018-12-27T19:59:50.725Z,101576.87
2018-12-27T20:02:21.565Z,101576.92
2018-12-27T20:04:52.576Z,101583.51
2018-12-27T20:07:23.473Z,101576.48
2018-12-27T20:09:54.657Z,101581.30
2018-12-27T20:12:45.996Z,101583.95
2018-12-27T20:15:16.910Z,101575.87
2018-12-27T20:17:47.810Z,101582.19
2018-12-27T20:20:18.632Z,101574.59
2018-12-27T20:22:49.637Z,101573.69
2018-12-27T20:25:22.953Z,101580.06
2018-12-27T20:27:53.779Z,101581.91
2018-12-27T20:30:24.623Z,101577.53
2018-12-27T20:32:55.564Z,101575.80
2018-12-27T20:35:26.660Z,101578.02
2018-12-27T20:37:57.976Z,101572.34
2018-12-27T20:40:29.196Z,101583.70
2018-12-27T20:43:00.262Z,101580.95
2018-12-27T20:45:31.255Z,101579.20
2018-12-27T20:48:03.689Z,101583.62
2018-12-27T20:50:34.757Z,101578.31
2018-12-27T20:53:05.780Z,101586.78
2018-12-27T20:55:38.510Z,101580.61
2018-12-27T20:58:09.462Z,101579.86
2018-12-27T21:00:40.510Z,101582.59
2018-12-27T21:03:11.544Z,101581.94
2018-12-27T21:05:42.404Z,101586.36
2018-12-27T21:08:14.190Z,101587.75
2018-12-27T21:10:45.247Z,101588.17
2018-12-27T21:13:16.031Z,101585.47
2018-12-27T21:15:46.807Z,101578.41
2018-12-27T21:18:17.568Z,101585.84
2018-12-27T21:20:48.359Z,101580.28
2018-12-27T21:23:19.234Z,101580.69
2018-12-27T21:25:50.088Z,101578.02
2018-12-27T21:28:20.832Z,101581.52
2018-12-27T21:30:51.676Z,101584.55
2018-12-27T21:33:22.528Z,101582.78
2018-12-27T21:35:53.304Z,101575.25
2018-12-27T21:38:24.105Z,101580.06
2018-12-27T21:40:54.866Z,101577.47
2018-12-27T21:43:25.731Z,101580.06
2018-12-27T21:45:56.742Z,101578.67
2018-12-27T21:48:27.535Z,101578.67
2018-12-27T21:50:58.355Z,101572.52
2018-12-27T21:53:29.189Z,101574.17
2018-12-27T21:55:59.994Z,101573.77
2018-12-27T21:58:30.809Z,101571.09
2018-12-27T22:01:01.638Z,101569.25
2018-12-27T22:03:32.568Z,101564.88
2018-12-27T22:06:03.428Z,101560.94
2018-12-27T22:08:34.382Z,101558.22
2018-12-27T22:11:05.252Z,101562.80
2018-12-27T22:13:39.083Z,101558.60
2018-12-27T22:16:09.991Z,101561.75
2018-12-27T22:18:40.822Z,101554.78
2018-12-27T22:21:11.597Z,101551.27
2018-12-27T22:23:42.463Z,101556.11
2018-12-27T22:26:13.207Z,101556.84
2018-12-27T22:28:43.989Z,101554.56
2018-12-27T22:31:14.759Z,101557.73
2018-12-27T22:33:45.531Z,101551.70
2018-12-27T22:36:16.335Z,101556.14
2018-12-27T22:38:47.131Z,101552.98
2018-12-27T22:41:17.927Z,101556.97
2018-12-27T22:43:48.731Z,101547.77
2018-12-27T22:46:19.484Z,101562.11
2018-12-27T22:48:50.329Z,101556.93
2018-12-27T22:51:21.494Z,101548.56
2018-12-27T22:53:52.359Z,101550.67
2018-12-27T22:56:23.197Z,101553.44
2018-12-27T22:58:53.975Z,101550.72
2018-12-27T23:01:25.034Z,101552.34
2018-12-27T23:03:55.827Z,101552.58
2018-12-27T23:06:26.667Z,101551.58
2018-12-27T23:08:57.500Z,101545.47
2018-12-27T23:11:28.403Z,101537.91
2018-12-27T23:13:59.217Z,101538.34
2018-12-27T23:16:30.098Z,101540.55
2018-12-27T23:19:00.857Z,101543.67
2018-12-27T23:21:31.684Z,101537.48
2018-12-27T23:24:02.436Z,101544.03
2018-12-27T23:26:33.264Z,101541.98
2018-12-27T23:29:04.105Z,101538.34
2018-12-27T23:31:34.860Z,101533.52
2018-12-27T23:34:05.663Z,101523.03
2018-12-27T23:36:37.998Z,101527.83
2018-12-27T23:39:09.593Z,101523.10
2018-12-27T23:41:40.349Z,101523.08
2018-12-27T23:44:11.158Z,101525.16
2018-12-27T23:46:41.931Z,101542.88
2018-12-27T23:49:12.750Z,101550.40
2018-12-27T23:51:43.622Z,101545.44
2018-12-27T23:54:14.478Z,101544.64
2018-12-27T23:56:45.276Z,101532.73
2018-12-27T23:59:16.126Z,101522.20
